createdAt,value
2019-02-19T00:02:09.662Z,2.60
2019-02-19T00:04:38.359Z,2.60
2019-02-19T00:07:07.061Z,2.70
2019-02-19T00:09:35.804Z,2.60
2019-02-19T00:12:04.513Z,2.60
2019-02-19T00:14:33.166Z,2.60
2019-02-19T00:17:01.854Z,2.50
2019-02-19T00:19:30.565Z,2.50
2019-02-19T00:21:59.235Z,2.50
2019-02-19T00:24:27.889Z,2.40
2019-02-19T00:26:56.613Z,2.40
2019-02-19T00:29:25.316Z,2.30
2019-02-19T00:31:54.030Z,2.20
2019-02-19T00:34:22.688Z,2.20
2019-02-19T00:36:51.401Z,2.20
2019-02-19T00:39:20.045Z,2.10
2019-02-19T00:41:48.720Z,2.10
2019-02-19T00:44:17.396Z,2.10
2019-02-19T00:46:46.102Z,2.00
2019-02-19T00:49:14.786Z,2.00
2019-02-19T00:51:43.529Z,2.10
2019-02-19T00:54:12.180Z,2.00
2019-02-19T00:56:40.892Z,2.00
2019-02-19T00:59:09.593Z,2.00
2019-02-19T01:01:38.240Z,2.00
2019-02-19T01:04:06.962Z,2.00
2019-02-19T01:06:35.654Z,2.00
2019-02-19T01:09:05.235Z,1.90
2019-02-19T01:11:33.909Z,2.00
2019-02-19T01:14:02.613Z,2.00
2019-02-19T01:16:31.268Z,2.00
2019-02-19T01:18:59.984Z,1.90
2019-02-19T01:21:28.662Z,1.90
2019-02-19T01:23:57.363Z,1.90
2019-02-19T01:26:26.077Z,1.80
2019-02-19T01:28:54.766Z,1.80
2019-02-19T01:31:23.440Z,1.80
2019-02-19T01:33:52.142Z,1.80
2019-02-19T01:36:20.789Z,1.80
2019-02-19T01:38:49.480Z,1.70
2019-02-19T01:41:18.143Z,1.70
2019-02-19T01:43:46.931Z,1.70
2019-02-19T01:46:15.619Z,1.70
2019-02-19T01:48:44.294Z,1.80
2019-02-19T01:51:12.995Z,1.70
2019-02-19T01:53:41.672Z,1.70
2019-02-19T01:56:10.457Z,1.70
2019-02-19T01:58:39.198Z,1.60
2019-02-19T02:01:34.873Z,1.70
2019-02-19T02:04:03.425Z,1.70
2019-02-19T02:06:32.094Z,1.60
2019-02-19T02:09:00.769Z,1.70
2019-02-19T02:11:29.493Z,1.60
2019-02-19T02:13:58.202Z,1.60
2019-02-19T02:16:26.861Z,1.60
2019-02-19T02:18:55.616Z,1.60
2019-02-19T02:21:24.296Z,1.50
2019-02-19T02:23:52.946Z,1.50
2019-02-19T02:26:21.659Z,1.50
2019-02-19T02:28:50.361Z,1.50
2019-02-19T02:31:19.075Z,1.50
2019-02-19T02:33:47.762Z,1.40
2019-02-19T02:36:16.754Z,1.30
2019-02-19T02:38:45.521Z,1.30
2019-02-19T02:41:14.233Z,1.30
2019-02-19T02:43:42.937Z,1.40
2019-02-19T02:46:11.642Z,1.30
2019-02-19T02:48:40.329Z,1.30
2019-02-19T02:51:09.126Z,1.30
2019-02-19T02:53:37.787Z,1.30
2019-02-19T02:56:06.503Z,1.30
2019-02-19T02:58:35.243Z,1.20
2019-02-19T03:01:03.916Z,1.20
2019-02-19T03:03:33.029Z,1.20
2019-02-19T03:06:09.385Z,1.20
2019-02-19T03:08:38.123Z,1.30
2019-02-19T03:11:06.787Z,1.30
2019-02-19T03:13:35.446Z,1.30
2019-02-19T03:16:04.148Z,1.20
2019-02-19T03:18:32.872Z,1.20
2019-02-19T03:21:01.527Z,1.20
2019-02-19T03:23:30.243Z,1.10
2019-02-19T03:25:58.943Z,1.10
2019-02-19T03:28:27.669Z,1.20
2019-02-19T03:30:56.655Z,1.20
2019-02-19T03:33:25.354Z,1.20
2019-02-19T03:35:54.118Z,1.20
2019-02-19T03:38:22.802Z,1.20
2019-02-19T03:40:51.470Z,1.20
2019-02-19T03:43:20.175Z,1.10
2019-02-19T03:45:48.875Z,1.10
2019-02-19T03:48:17.545Z,1.10
2019-02-19T03:50:46.247Z,1.00
2019-02-19T03:53:14.981Z,1.00
2019-02-19T03:55:43.999Z,1.00
2019-02-19T03:58:12.680Z,1.00
2019-02-19T04:00:41.407Z,1.00
2019-02-19T04:03:10.093Z,1.10
2019-02-19T04:05:38.788Z,1.10
2019-02-19T04:08:07.495Z,1.10
2019-02-19T04:10:36.188Z,1.10
2019-02-19T04:13:04.907Z,1.00
2019-02-19T04:15:33.784Z,1.00
2019-02-19T04:18:02.497Z,1.10
2019-02-19T04:20:31.245Z,1.10
2019-02-19T04:22:59.922Z,1.00
2019-02-19T04:25:28.573Z,1.00
2019-02-19T04:27:57.266Z,1.00
2019-02-19T04:30:25.946Z,1.00
2019-02-19T04:32:54.682Z,1.00
2019-02-19T04:35:23.366Z,0.90
2019-02-19T04:37:52.026Z,1.00
2019-02-19T04:40:20.685Z,1.00
2019-02-19T04:42:49.361Z,1.00
2019-02-19T04:45:18.040Z,1.00
2019-02-19T04:47:46.756Z,0.90
2019-02-19T04:50:15.524Z,0.90
2019-02-19T04:52:44.205Z,0.90
2019-02-19T04:55:12.876Z,0.90
2019-02-19T04:57:41.583Z,0.90
2019-02-19T05:00:14.169Z,0.90
2019-02-19T05:02:42.896Z,0.80
2019-02-19T05:05:11.594Z,0.90
2019-02-19T05:07:40.275Z,0.80
2019-02-19T05:10:09.209Z,0.90
2019-02-19T05:12:37.893Z,0.90
2019-02-19T05:15:09.389Z,0.90
2019-02-19T05:17:38.145Z,0.90
2019-02-19T05:20:08.469Z,0.90
2019-02-19T05:22:37.145Z,0.90
2019-02-19T05:25:07.805Z,0.90
2019-02-19T05:27:36.511Z,0.90
2019-02-19T05:30:08.107Z,0.90
2019-02-19T05:32:36.912Z,0.80
2019-02-19T05:35:06.587Z,0.90
2019-02-19T05:37:35.398Z,0.80
2019-02-19T05:40:06.170Z,0.90
2019-02-19T05:42:34.835Z,0.90
2019-02-19T05:45:03.941Z,0.80
2019-02-19T05:47:32.643Z,0.80
2019-02-19T05:50:01.316Z,0.80
2019-02-19T05:52:30.028Z,0.80
2019-02-19T05:54:58.698Z,0.80
2019-02-19T05:57:27.369Z,0.80
2019-02-19T05:59:56.095Z,0.80
2019-02-19T06:02:24.816Z,0.80
2019-02-19T06:04:53.536Z,0.80
2019-02-19T06:07:22.338Z,0.80
2019-02-19T06:09:51.004Z,0.80
2019-02-19T06:12:19.702Z,0.90
2019-02-19T06:14:48.374Z,1.00
2019-02-19T06:17:17.061Z,1.10
2019-02-19T06:19:45.736Z,1.00
2019-02-19T06:22:14.396Z,1.00
2019-02-19T06:24:43.112Z,1.10
2019-02-19T06:27:11.812Z,1.10
2019-02-19T06:29:40.522Z,1.10
2019-02-19T06:32:09.301Z,1.00
2019-02-19T06:34:37.950Z,1.10
2019-02-19T06:37:06.661Z,1.00
2019-02-19T06:39:35.435Z,1.00
2019-02-19T06:42:04.138Z,1.10
2019-02-19T06:44:32.830Z,1.10
2019-02-19T06:47:06.705Z,1.10
2019-02-19T06:49:31.872Z,1.10
2019-02-19T06:52:00.562Z,1.10
2019-02-19T06:54:29.247Z,1.20
2019-02-19T06:56:57.945Z,1.20
2019-02-19T06:59:26.769Z,1.20
2019-02-19T07:01:57.054Z,1.20
2019-02-19T07:04:27.668Z,1.30
2019-02-19T07:06:56.350Z,1.30
2019-02-19T07:09:25.061Z,1.40
2019-02-19T07:11:53.794Z,1.40
2019-02-19T07:14:22.558Z,1.50
2019-02-19T07:16:51.277Z,1.40
2019-02-19T07:19:20.037Z,1.50
2019-02-19T07:21:48.731Z,1.60
2019-02-19T07:24:17.405Z,1.60
2019-02-19T07:26:46.097Z,1.70
2019-02-19T07:29:15.144Z,1.70
2019-02-19T07:31:43.896Z,1.80
2019-02-19T07:34:12.590Z,1.90
2019-02-19T07:36:41.267Z,2.00
2019-02-19T07:39:09.973Z,2.10
2019-02-19T07:41:38.642Z,2.30
2019-02-19T07:44:07.345Z,2.50
2019-02-19T07:46:36.007Z,2.60
2019-02-19T07:49:04.693Z,2.70
2019-02-19T07:51:33.350Z,2.90
2019-02-19T07:54:02.059Z,3.10
2019-02-19T07:56:30.730Z,3.30
2019-02-19T07:58:59.448Z,3.40
2019-02-19T08:01:28.182Z,3.50
2019-02-19T08:03:56.869Z,3.70
2019-02-19T08:06:25.513Z,4.10
2019-02-19T08:08:54.189Z,4.30
2019-02-19T08:11:22.876Z,4.30
2019-02-19T08:13:51.577Z,4.50
2019-02-19T08:16:20.227Z,4.60
2019-02-19T08:18:48.941Z,4.80
2019-02-19T08:21:17.686Z,5.00
2019-02-19T08:23:46.337Z,5.10
2019-02-19T08:26:15.087Z,5.20
2019-02-19T08:28:43.781Z,5.40
2019-02-19T08:31:12.538Z,5.70
2019-02-19T08:33:41.230Z,5.90
2019-02-19T08:36:09.889Z,6.00
2019-02-19T08:38:38.548Z,6.00
2019-02-19T08:41:07.251Z,6.10
2019-02-19T08:43:35.947Z,6.30
2019-02-19T08:46:04.626Z,6.30
2019-02-19T08:48:33.300Z,6.50
2019-02-19T08:51:01.983Z,6.50
2019-02-19T08:53:30.711Z,6.60
2019-02-19T08:55:59.396Z,7.00
2019-02-19T08:58:28.093Z,7.10
2019-02-19T09:00:56.763Z,7.40
2019-02-19T09:03:25.442Z,7.30
2019-02-19T09:05:54.089Z,7.50
2019-02-19T09:08:22.816Z,7.60
2019-02-19T09:10:51.505Z,7.60
2019-02-19T09:13:20.255Z,7.50
2019-02-19T09:15:48.966Z,7.70
2019-02-19T09:18:17.631Z,7.90
2019-02-19T09:20:46.349Z,8.00
2019-02-19T09:23:15.014Z,8.10
2019-02-19T09:25:43.734Z,8.20
2019-02-19T09:28:12.408Z,8.30
2019-02-19T09:30:41.092Z,8.40
2019-02-19T09:33:09.775Z,8.60
2019-02-19T09:35:38.531Z,8.60
2019-02-19T09:38:07.209Z,8.90
2019-02-19T09:40:35.854Z,8.90
2019-02-19T09:43:04.591Z,9.00
2019-02-19T09:45:33.223Z,9.00
2019-02-19T09:48:01.875Z,8.90
2019-02-19T09:50:30.557Z,9.20
2019-02-19T09:53:00.220Z,9.20
2019-02-19T09:55:29.267Z,9.50
2019-02-19T09:57:57.940Z,9.60
2019-02-19T10:00:26.618Z,9.70
2019-02-19T10:02:55.393Z,10.00
2019-02-19T10:05:24.098Z,10.00
2019-02-19T10:07:52.779Z,10.10
2019-02-19T10:10:24.181Z,10.40
2019-02-19T10:12:52.832Z,10.50
2019-02-19T10:15:21.538Z,10.60
2019-02-19T10:17:50.232Z,10.70
2019-02-19T10:20:18.946Z,10.80
2019-02-19T10:22:47.612Z,10.80
2019-02-19T10:25:16.302Z,10.80
2019-02-19T10:27:45.021Z,10.90
2019-02-19T10:30:18.561Z,10.90
2019-02-19T10:32:47.222Z,11.00
2019-02-19T10:35:15.960Z,11.20
2019-02-19T10:37:44.611Z,11.40
2019-02-19T10:40:16.289Z,11.40
2019-02-19T10:42:45.031Z,11.40
2019-02-19T10:45:16.443Z,11.50
2019-02-19T10:47:45.125Z,11.50
2019-02-19T10:50:13.805Z,11.70
2019-02-19T10:52:42.494Z,11.80
2019-02-19T10:55:11.189Z,11.90
2019-02-19T10:57:39.882Z,12.00
2019-02-19T11:00:16.167Z,12.00
2019-02-19T11:02:44.838Z,12.20
2019-02-19T11:05:13.502Z,12.30
2019-02-19T11:07:42.234Z,12.40
2019-02-19T11:10:13.527Z,12.40
2019-02-19T11:12:42.306Z,12.60
2019-02-19T11:15:12.651Z,12.70
2019-02-19T11:17:41.305Z,12.60
2019-02-19T11:20:12.344Z,12.80
2019-02-19T11:22:41.067Z,12.90
2019-02-19T11:25:11.645Z,13.00
2019-02-19T11:27:40.388Z,13.00
2019-02-19T11:30:14.642Z,13.10
2019-02-19T11:32:43.370Z,13.30
2019-02-19T11:35:12.077Z,13.30
2019-02-19T11:37:40.768Z,13.70
2019-02-19T11:40:11.650Z,13.70
2019-02-19T11:42:40.335Z,13.60
2019-02-19T11:45:14.904Z,13.50
2019-02-19T11:47:43.580Z,13.50
2019-02-19T11:50:12.893Z,13.50
2019-02-19T11:52:41.570Z,13.40
2019-02-19T11:55:18.216Z,13.50
2019-02-19T11:57:46.927Z,13.50
2019-02-19T12:00:17.840Z,13.70
2019-02-19T12:02:46.540Z,13.70
2019-02-19T12:05:15.197Z,13.60
2019-02-19T12:07:43.894Z,13.60
2019-02-19T12:10:12.559Z,13.80
2019-02-19T12:12:41.239Z,13.90
2019-02-19T12:15:13.234Z,14.00
2019-02-19T12:17:41.930Z,14.10
2019-02-19T12:20:12.979Z,14.00
2019-02-19T12:22:41.666Z,14.00
2019-02-19T12:25:10.464Z,13.90
2019-02-19T12:27:39.164Z,14.00
2019-02-19T12:30:10.992Z,14.00
2019-02-19T12:32:39.645Z,14.00
2019-02-19T12:35:08.967Z,13.80
2019-02-19T12:37:37.626Z,13.80
2019-02-19T12:40:09.420Z,13.80
2019-02-19T12:42:38.110Z,13.70
2019-02-19T12:45:09.669Z,13.60
2019-02-19T12:47:38.352Z,13.50
2019-02-19T12:50:10.020Z,13.50
2019-02-19T12:52:38.688Z,13.50
2019-02-19T12:55:07.972Z,13.50
2019-02-19T12:57:36.917Z,13.40
2019-02-19T13:00:08.949Z,13.40
2019-02-19T13:02:37.566Z,13.40
2019-02-19T13:05:08.428Z,13.40
2019-02-19T13:07:37.134Z,13.40
2019-02-19T13:10:08.444Z,13.50
2019-02-19T13:12:37.094Z,13.50
2019-02-19T13:15:09.172Z,13.50
2019-02-19T13:17:37.858Z,13.50
2019-02-19T13:20:09.820Z,13.60
2019-02-19T13:22:38.674Z,13.60
2019-02-19T13:25:09.173Z,13.70
2019-02-19T13:27:37.902Z,13.70
2019-02-19T13:30:10.560Z,13.60
2019-02-19T13:32:39.390Z,13.60
2019-02-19T13:35:09.883Z,13.50
2019-02-19T13:37:38.547Z,13.50
2019-02-19T13:40:13.219Z,13.60
2019-02-19T13:42:41.911Z,13.70
2019-02-19T13:45:13.315Z,13.80
2019-02-19T13:47:42.036Z,13.70
2019-02-19T13:50:22.339Z,13.80
2019-02-19T13:52:52.590Z,13.70
2019-02-19T13:55:22.829Z,13.70
2019-02-19T13:57:51.599Z,13.70
2019-02-19T14:00:21.947Z,13.70
2019-02-19T14:02:50.602Z,13.70
2019-02-19T14:05:19.306Z,13.70
2019-02-19T14:07:48.082Z,13.70
2019-02-19T14:10:16.803Z,13.70
2019-02-19T14:12:45.492Z,13.70
2019-02-19T14:15:15.717Z,13.70
2019-02-19T14:17:44.437Z,13.70
2019-02-19T14:20:14.682Z,13.70
2019-02-19T14:22:53.936Z,13.70
2019-02-19T14:25:27.431Z,13.70
2019-02-19T14:27:57.747Z,13.70
2019-02-19T14:30:42.789Z,13.70
2019-02-19T14:33:29.470Z,13.70
2019-02-19T14:36:15.997Z,13.60
2019-02-19T14:38:48.702Z,13.60
2019-02-19T14:41:21.753Z,13.50
2019-02-19T14:43:55.135Z,13.40
2019-02-19T14:46:40.290Z,13.30
2019-02-19T14:49:34.192Z,13.30
2019-02-19T14:52:10.075Z,13.20
2019-02-19T14:54:43.676Z,13.20
2019-02-19T14:57:19.618Z,13.10
2019-02-19T14:59:58.683Z,13.10
2019-02-19T15:02:34.707Z,13.00
2019-02-19T15:05:17.282Z,12.90
2019-02-19T15:07:53.417Z,12.90
2019-02-19T15:10:29.620Z,12.90
2019-02-19T15:13:15.197Z,12.80
2019-02-19T15:15:45.532Z,12.70
2019-02-19T15:18:31.998Z,12.60
2019-02-19T15:21:14.288Z,12.60
2019-02-19T15:23:50.525Z,12.60
2019-02-19T15:26:29.433Z,12.50
2019-02-19T15:29:02.671Z,12.40
2019-02-19T15:31:33.013Z,12.40
2019-02-19T15:34:09.270Z,12.40
2019-02-19T15:36:55.634Z,12.40
2019-02-19T15:39:36.307Z,12.30
2019-02-19T15:42:09.346Z,12.30
2019-02-19T15:44:39.720Z,12.30
2019-02-19T15:47:12.917Z,12.20
2019-02-19T15:49:49.174Z,12.20
2019-02-19T15:52:19.431Z,12.10
2019-02-19T15:54:59.315Z,12.10
2019-02-19T15:57:44.694Z,12.10
2019-02-19T16:00:23.239Z,12.00
2019-02-19T16:02:53.473Z,12.00
2019-02-19T16:05:26.848Z,11.90
2019-02-19T16:08:06.131Z,11.80
2019-02-19T16:10:36.406Z,11.80
2019-02-19T16:13:09.439Z,11.80
2019-02-19T16:15:45.768Z,11.70
2019-02-19T16:18:21.873Z,11.70
2019-02-19T16:20:55.178Z,11.70
2019-02-19T16:23:28.182Z,11.60
2019-02-19T16:26:01.297Z,11.60
2019-02-19T16:28:34.050Z,11.60
2019-02-19T16:31:04.314Z,11.50
2019-02-19T16:33:37.250Z,11.40
2019-02-19T16:36:07.534Z,11.40
2019-02-19T16:38:54.065Z,11.30
2019-02-19T16:41:36.233Z,11.30
2019-02-19T16:44:06.558Z,11.20
2019-02-19T16:46:51.882Z,11.20
2019-02-19T16:49:34.205Z,11.10
2019-02-19T16:52:04.457Z,11.00
2019-02-19T16:54:34.783Z,10.90
2019-02-19T16:57:05.040Z,10.70
2019-02-19T16:59:41.332Z,10.60
2019-02-19T17:02:17.258Z,10.50
2019-02-19T17:04:47.493Z,10.40
2019-02-19T17:07:20.543Z,10.30
2019-02-19T17:09:50.807Z,10.20
2019-02-19T17:12:32.810Z,10.20
2019-02-19T17:15:15.091Z,10.10
2019-02-19T17:17:45.379Z,10.00
2019-02-19T17:20:29.200Z,10.00
2019-02-19T17:22:58.911Z,10.00
2019-02-19T17:25:34.694Z,9.90
2019-02-19T17:28:10.777Z,9.80
2019-02-19T17:30:40.991Z,9.60
2019-02-19T17:33:11.249Z,9.50
2019-02-19T17:35:44.486Z,9.40
2019-02-19T17:38:20.660Z,9.40
2019-02-19T17:40:59.808Z,9.30
2019-02-19T17:43:36.189Z,9.20
2019-02-19T17:46:15.650Z,9.10
2019-02-19T17:48:49.093Z,9.00
2019-02-19T17:51:22.050Z,8.90
2019-02-19T17:53:52.347Z,9.00
2019-02-19T17:56:28.420Z,9.00
2019-02-19T17:59:10.486Z,8.80
2019-02-19T18:01:46.956Z,8.80
2019-02-19T18:04:17.226Z,8.70
2019-02-19T18:06:47.475Z,8.70
2019-02-19T18:09:34.289Z,8.60
2019-02-19T18:12:04.951Z,8.60
2019-02-19T18:14:51.518Z,8.60
2019-02-19T18:17:24.558Z,8.50
2019-02-19T18:19:53.222Z,8.50
2019-02-19T18:22:21.879Z,8.50
2019-02-19T18:24:50.937Z,8.50
2019-02-19T18:27:19.610Z,8.50
2019-02-19T18:29:48.294Z,8.40
2019-02-19T18:32:16.984Z,8.50
2019-02-19T18:34:45.654Z,8.40
2019-02-19T18:37:14.335Z,8.40
2019-02-19T18:39:43.051Z,8.40
2019-02-19T18:42:11.742Z,8.40
2019-02-19T18:44:40.439Z,8.30
2019-02-19T18:47:09.078Z,8.40
2019-02-19T18:49:37.783Z,8.40
2019-02-19T18:52:06.430Z,8.30
2019-02-19T18:54:35.147Z,8.30
2019-02-19T18:57:03.892Z,8.30
2019-02-19T18:59:32.551Z,8.30
2019-02-19T19:02:01.255Z,8.30
2019-02-19T19:04:29.975Z,8.20
2019-02-19T19:06:58.627Z,8.20
2019-02-19T19:09:27.313Z,8.10
2019-02-19T19:11:55.990Z,8.10
2019-02-19T19:14:24.764Z,8.10
2019-02-19T19:16:53.496Z,8.10
2019-02-19T19:19:22.182Z,8.10
2019-02-19T19:21:50.866Z,8.00
2019-02-19T19:24:19.575Z,8.00
2019-02-19T19:26:48.300Z,7.90
2019-02-19T19:29:17.069Z,7.90
2019-02-19T19:31:45.759Z,7.80
2019-02-19T19:34:14.513Z,7.80
2019-02-19T19:36:43.215Z,7.80
2019-02-19T19:39:11.952Z,7.80
2019-02-19T19:41:40.611Z,7.70
2019-02-19T19:44:09.296Z,7.70
2019-02-19T19:46:38.024Z,7.70
2019-02-19T19:49:06.685Z,7.70
2019-02-19T19:51:35.333Z,7.60
2019-02-19T19:54:04.058Z,7.60
2019-02-19T19:56:32.710Z,7.60
2019-02-19T19:59:01.395Z,7.50
2019-02-19T20:01:30.095Z,7.50
2019-02-19T20:03:58.771Z,7.50
2019-02-19T20:06:27.446Z,7.40
2019-02-19T20:08:56.166Z,7.40
2019-02-19T20:11:24.841Z,7.30
2019-02-19T20:13:53.518Z,7.40
2019-02-19T20:16:22.320Z,7.30
2019-02-19T20:18:51.139Z,7.30
2019-02-19T20:21:26.423Z,7.30
2019-02-19T20:23:50.287Z,7.30
2019-02-19T20:26:18.936Z,7.30
2019-02-19T20:28:47.655Z,7.30
2019-02-19T20:31:16.381Z,7.20
2019-02-19T20:33:45.087Z,7.20
2019-02-19T20:36:13.722Z,7.10
2019-02-19T20:38:42.443Z,7.10
2019-02-19T20:41:11.120Z,7.10
2019-02-19T20:43:39.801Z,7.00
2019-02-19T20:46:08.517Z,7.00
2019-02-19T20:48:37.184Z,7.00
2019-02-19T20:51:05.938Z,7.00
2019-02-19T20:53:34.846Z,6.90
2019-02-19T20:56:03.502Z,6.90
2019-02-19T20:58:33.897Z,6.90
2019-02-19T21:01:02.555Z,6.90
2019-02-19T21:03:31.251Z,6.90
2019-02-19T21:06:00.010Z,6.90
2019-02-19T21:08:28.729Z,6.90
2019-02-19T21:10:57.410Z,6.90
2019-02-19T21:13:26.112Z,6.90
2019-02-19T21:15:54.769Z,6.90
2019-02-19T21:18:25.169Z,6.80
2019-02-19T21:20:53.870Z,6.80
2019-02-19T21:23:22.551Z,6.80
2019-02-19T21:25:51.254Z,6.80
2019-02-19T21:28:20.016Z,6.80
2019-02-19T21:30:54.925Z,6.80
2019-02-19T21:33:45.504Z,6.70
2019-02-19T21:36:27.451Z,6.60
2019-02-19T21:39:08.742Z,6.60
2019-02-19T21:41:59.492Z,6.50
2019-02-19T21:44:47.099Z,6.50
2019-02-19T21:47:33.196Z,6.50
2019-02-19T21:50:15.996Z,6.50
2019-02-19T21:52:57.964Z,6.40
2019-02-19T21:55:25.024Z,6.40
2019-02-19T21:57:53.698Z,6.30
2019-02-19T22:00:24.147Z,6.30
2019-02-19T22:03:11.187Z,6.30
2019-02-19T22:05:57.400Z,6.30
2019-02-19T22:08:51.410Z,6.30
2019-02-19T22:11:36.626Z,6.30
2019-02-19T22:14:27.234Z,6.30
2019-02-19T22:17:15.749Z,6.30
2019-02-19T22:20:08.834Z,6.30
2019-02-19T22:22:59.744Z,6.30
2019-02-19T22:25:39.956Z,6.30
2019-02-19T22:28:31.348Z,6.30
2019-02-19T22:31:09.951Z,6.40
2019-02-19T22:33:44.956Z,6.40
2019-02-19T22:36:13.699Z,6.40
2019-02-19T22:38:42.398Z,6.40
2019-02-19T22:41:11.154Z,6.40
2019-02-19T22:43:39.836Z,6.40
2019-02-19T22:46:08.501Z,6.30
2019-02-19T22:48:37.150Z,6.30
2019-02-19T22:51:05.826Z,6.30
2019-02-19T22:53:45.171Z,6.30
2019-02-19T22:56:34.038Z,6.40
2019-02-19T22:59:02.949Z,6.30
2019-02-19T23:01:33.231Z,6.40
2019-02-19T23:04:02.001Z,6.30
2019-02-19T23:06:30.677Z,6.30
2019-02-19T23:08:59.323Z,6.30
2019-02-19T23:11:27.998Z,6.30
2019-02-19T23:13:56.693Z,6.30
2019-02-19T23:16:25.450Z,6.30
2019-02-19T23:18:54.540Z,6.30
2019-02-19T23:21:23.417Z,6.30
2019-02-19T23:23:52.163Z,6.30
2019-02-19T23:26:20.826Z,6.20
2019-02-19T23:28:50.287Z,6.20
2019-02-19T23:31:18.921Z,6.20
2019-02-19T23:33:48.568Z,6.30
2019-02-19T23:36:21.851Z,6.20
2019-02-19T23:38:50.652Z,6.20
2019-02-19T23:41:19.532Z,6.20
2019-02-19T23:43:48.241Z,6.20
2019-02-19T23:46:16.925Z,6.20
2019-02-19T23:48:45.938Z,6.30
2019-02-19T23:51:14.633Z,6.30
2019-02-19T23:53:43.311Z,6.30
2019-02-19T23:56:11.961Z,6.40
2019-02-19T23:58:40.670Z,6.40
